Baltica — 9HA2607 — position and weather

sailwx.info

Track history (hours):
 
Tides and Currents Weather Stations Pressure Air Temp Water Temp Dewpoint Dewpoint Depression Visibility Wind Speed Wind Dir Waves Ship Positions

Baltica

Last reported at 2015-Feb-28 08:16 UTC. Time now 2015-Feb-28 13:59 UTC.
Position N 59°34' E 023°05'.

Length 157 m; draft 7.3 m.

Type: Cargo ship. MMSI: 215013000.

Date/timePositionNaut miles runAvg speedWind from/ knotsBaromVisibWave heightAir tempDewpointWater temp
2015-Feb-28 08:16N 59°34' E 023°05'1217.4
2015-Feb-28 07:34N 59°38' E 023°29'2017.5
2015-Feb-28 06:24N 59°44' E 024°07'1517.5
2015-Feb-28 05:33N 59°48' E 024°35'5317.7
2015-Feb-28 02:32N 59°59' E 026°19'2017.6
2015-Feb-28 01:24N 59°60' E 026°59'9413.6
2015-Feb-27 18:29N 59°54' E 030°07'3 3.2
2015-Feb-27 17:33N 59°54' E 030°13'0 0.0
2015-Feb-27 16:28N 59°54' E 030°13'0 0.0
2015-Feb-27 15:28N 59°54' E 030°13'0 0.0
2015-Feb-27 14:13N 59°54' E 030°13'0 0.0
2015-Feb-27 13:22N 59°54' E 030°13'0 0.0
2015-Feb-27 12:28N 59°54' E 030°13'0 0.0
2015-Feb-27 11:31N 59°54' E 030°13'0 0.0
2015-Feb-27 10:31N 59°54' E 030°13'0 0.0
2015-Feb-27 09:31N 59°54' E 030°13'0 0.1
2015-Feb-27 08:33N 59°54' E 030°13'0 0.0
2015-Feb-27 07:32N 59°54' E 030°13'0 0.0
2015-Feb-27 06:17N 59°54' E 030°13'0 0.0
2015-Feb-27 05:32N 59°54' E 030°13'0 0.0
2015-Feb-27 04:32N 59°54' E 030°13'0 0.0
2015-Feb-27 03:14N 59°54' E 030°13'0 0.0
2015-Feb-27 02:32N 59°54' E 030°13'0 0.0
2015-Feb-26 19:29N 59°54' E 030°13'0 0.0
2015-Feb-26 18:32N 59°54' E 030°13'0 0.0
2015-Feb-26 17:29N 59°54' E 030°13'0 0.0
2015-Feb-26 03:09N 59°54' E 030°13'1 1.4
2015-Feb-26 02:33N 59°53' E 030°12'8411.3
2015-Feb-25 19:06N 60°04' E 027°25'914.9
2015-Feb-25 18:29N 59°60' E 027°09'1314.3
2015-Feb-25 17:33N 59°59' E 026°43'2014.8
2015-Feb-25 16:11N 59°55' E 026°03'3316.8
2015-Feb-25 14:13N 59°47' E 024°59'1116.6
2015-Feb-25 13:33N 59°45' E 024°38'2216.9
2015-Feb-25 12:14N 59°39' E 023°55'1317.2
2015-Feb-25 11:30N 59°35' E 023°31'34613.2
2015-Feb-24 09:17N 55°41' E 015°36'1112.7
2015-Feb-24 08:25N 55°35' E 015°19'7 7.9
2015-Feb-24 07:34N 55°30' E 015°12'9 8.8
2015-Feb-24 06:33N 55°29' E 014°57'1818.1
2015-Feb-24 05:33N 55°18' E 014°32'1818.0
2015-Feb-24 04:33N 55°04' E 014°12'1817.9
2015-Feb-24 03:33N 54°56' E 013°43'1817.9
2015-Feb-24 02:33N 54°50' E 013°14'1717.4
2015-Feb-24 01:33N 54°44' E 012°46'1716.6
2015-Feb-24 00:33N 54°35' E 012°22'1716.7
2015-Feb-23 23:34N 54°22' E 012°05'1717.3
2015-Feb-23 22:33N 54°14' E 011°38'1817.7
2015-Feb-23 21:33N 54°05' E 011°12'4 0.2
2015-Feb-22 21:07N 54°05' E 011°05'1015.6
2015-Feb-22 20:30N 54°11' E 011°18'1515.8
2015-Feb-22 19:33N 54°19' E 011°40'1615.5
2015-Feb-22 18:33N 54°26' E 012°04'1414.1
2015-Feb-22 17:33N 54°37' E 012°19'1815.4
2015-Feb-22 16:24N 54°47' E 012°44'1315.8
2015-Feb-22 15:33N 54°52' E 013°06'1615.8
2015-Feb-22 14:33N 54°56' E 013°32'1615.7
2015-Feb-22 13:33N 55°02' E 013°58'1515.2
2015-Feb-22 12:33N 55°12' E 014°17'1615.6
2015-Feb-22 11:33N 55°24' E 014°34'1615.5
2015-Feb-22 10:33N 55°33' E 014°57'1615.4
2015-Feb-22 09:29N 55°41' E 015°22'34114.8
2015-Feb-21 10:30N 59°36' E 023°04'1515.8
2015-Feb-21 09:33N 59°40' E 023°32'1615.8
2015-Feb-21 08:32N 59°45' E 024°03'1515.9
2015-Feb-21 07:33N 59°49' E 024°33'4915.7
2015-Feb-21 04:25N 60°02' E 026°08'1315.6
2015-Feb-21 03:33N 60°12' E 026°23'1413.5
2015-Feb-21 02:33N 60°22' E 026°42'1010.0
2015-Feb-21 01:33N 60°29' E 026°57'0 0.0
2015-Feb-21 00:34N 60°29' E 026°57'0 0.0
2015-Feb-20 23:34N 60°29' E 026°57'0 0.0
2015-Feb-20 22:31N 60°29' E 026°57'0 0.0
2015-Feb-20 21:34N 60°29' E 026°57'0 0.0
2015-Feb-20 20:34N 60°29' E 026°57'0 0.0
2015-Feb-20 19:34N 60°29' E 026°57'0 0.0
2015-Feb-20 18:34N 60°29' E 026°57'0 0.0
2015-Feb-20 17:31N 60°29' E 026°57'0 0.0
2015-Feb-20 16:31N 60°29' E 026°57'0 0.0
2015-Feb-20 15:31N 60°29' E 026°57'0 0.0
2015-Feb-20 14:31N 60°29' E 026°57'0 0.0
2015-Feb-20 13:31N 60°29' E 026°57'0 0.0
2015-Feb-20 12:31N 60°29' E 026°57'0 0.0
2015-Feb-20 11:34N 60°29' E 026°57'0 0.0
2015-Feb-20 10:31N 60°29' E 026°57'0 0.0
2015-Feb-20 09:34N 60°29' E 026°57'0 0.0
2015-Feb-20 08:34N 60°29' E 026°57'0 0.0
2015-Feb-20 07:31N 60°29' E 026°57'0 0.0
2015-Feb-20 06:34N 60°29' E 026°57'0 0.0
2015-Feb-20 05:31N 60°29' E 026°57'0 0.0
2015-Feb-20 04:34N 60°29' E 026°57'0 0.2
2015-Feb-20 03:33N 60°29' E 026°57'10 9.9
2015-Feb-20 02:33N 60°20' E 027°06'1211.7
2015-Feb-20 01:32N 60°13' E 027°25'8410.5
2015-Feb-19 17:33N 59°54' E 030°09'2 1.8
2015-Feb-19 16:25N 59°54' E 030°13'0 0.0
2015-Feb-19 15:31N 59°54' E 030°13'0 0.0
2015-Feb-19 14:31N 59°54' E 030°13'0 0.0
2015-Feb-19 13:22N 59°54' E 030°13'0 0.0
2015-Feb-19 12:31N 59°54' E 030°13'0 0.0
2015-Feb-19 11:31N 59°54' E 030°13'0 0.0
2015-Feb-19 09:25N 59°54' E 030°13'0 0.0
2015-Feb-19 08:25N 59°54' E 030°13'0 0.0
2015-Feb-19 05:07N 59°54' E 030°13'0 0.5
2015-Feb-19 04:31N 59°53' E 030°13'96 4.8
2015-Feb-18 08:34N 59°58' E 027°01'  
Track history (hours):
 
Tides and Currents Weather Stations Pressure Air Temp Water Temp Dewpoint Dewpoint Depression Visibility Wind Speed Wind Dir Waves Ship Positions

Baltica

Last reported at 2015-Feb-28 08:16 UTC. Time now 2015-Feb-28 13:59 UTC.
Position N 59°34' E 023°05'.

Length 157 m; draft 7.3 m.

Type: Cargo ship. MMSI: 215013000.

Date/timePositionNaut miles runAvg speedWind from/ knotsBaromVisibWave heightAir tempDewpointWater temp
2015-Feb-28 08:16N 59°34' E 023°05'1217.4
2015-Feb-28 07:34N 59°38' E 023°29'2017.5
2015-Feb-28 06:24N 59°44' E 024°07'1517.5
2015-Feb-28 05:33N 59°48' E 024°35'5317.7
2015-Feb-28 02:32N 59°59' E 026°19'2017.6
2015-Feb-28 01:24N 59°60' E 026°59'9413.6
2015-Feb-27 18:29N 59°54' E 030°07'3 3.2
2015-Feb-27 17:33N 59°54' E 030°13'0 0.0
2015-Feb-27 16:28N 59°54' E 030°13'0 0.0
2015-Feb-27 15:28N 59°54' E 030°13'0 0.0
2015-Feb-27 14:13N 59°54' E 030°13'0 0.0
2015-Feb-27 13:22N 59°54' E 030°13'0 0.0
2015-Feb-27 12:28N 59°54' E 030°13'0 0.0
2015-Feb-27 11:31N 59°54' E 030°13'0 0.0
2015-Feb-27 10:31N 59°54' E 030°13'0 0.0
2015-Feb-27 09:31N 59°54' E 030°13'0 0.1
2015-Feb-27 08:33N 59°54' E 030°13'0 0.0
2015-Feb-27 07:32N 59°54' E 030°13'0 0.0
2015-Feb-27 06:17N 59°54' E 030°13'0 0.0
2015-Feb-27 05:32N 59°54' E 030°13'0 0.0
2015-Feb-27 04:32N 59°54' E 030°13'0 0.0
2015-Feb-27 03:14N 59°54' E 030°13'0 0.0
2015-Feb-27 02:32N 59°54' E 030°13'0 0.0
2015-Feb-26 19:29N 59°54' E 030°13'0 0.0
2015-Feb-26 18:32N 59°54' E 030°13'0 0.0
2015-Feb-26 17:29N 59°54' E 030°13'0 0.0
2015-Feb-26 03:09N 59°54' E 030°13'1 1.4
2015-Feb-26 02:33N 59°53' E 030°12'8411.3
2015-Feb-25 19:06N 60°04' E 027°25'914.9
2015-Feb-25 18:29N 59°60' E 027°09'1314.3
2015-Feb-25 17:33N 59°59' E 026°43'2014.8
2015-Feb-25 16:11N 59°55' E 026°03'3316.8
2015-Feb-25 14:13N 59°47' E 024°59'1116.6
2015-Feb-25 13:33N 59°45' E 024°38'2216.9
2015-Feb-25 12:14N 59°39' E 023°55'1317.2
2015-Feb-25 11:30N 59°35' E 023°31'34613.2
2015-Feb-24 09:17N 55°41' E 015°36'1112.7
2015-Feb-24 08:25N 55°35' E 015°19'7 7.9
2015-Feb-24 07:34N 55°30' E 015°12'9 8.8
2015-Feb-24 06:33N 55°29' E 014°57'1818.1
2015-Feb-24 05:33N 55°18' E 014°32'1818.0
2015-Feb-24 04:33N 55°04' E 014°12'1817.9
2015-Feb-24 03:33N 54°56' E 013°43'1817.9
2015-Feb-24 02:33N 54°50' E 013°14'1717.4
2015-Feb-24 01:33N 54°44' E 012°46'1716.6
2015-Feb-24 00:33N 54°35' E 012°22'1716.7
2015-Feb-23 23:34N 54°22' E 012°05'1717.3
2015-Feb-23 22:33N 54°14' E 011°38'1817.7
2015-Feb-23 21:33N 54°05' E 011°12'4 0.2
2015-Feb-22 21:07N 54°05' E 011°05'1015.6
2015-Feb-22 20:30N 54°11' E 011°18'1515.8
2015-Feb-22 19:33N 54°19' E 011°40'1615.5
2015-Feb-22 18:33N 54°26' E 012°04'1414.1
2015-Feb-22 17:33N 54°37' E 012°19'1815.4
2015-Feb-22 16:24N 54°47' E 012°44'1315.8
2015-Feb-22 15:33N 54°52' E 013°06'1615.8
2015-Feb-22 14:33N 54°56' E 013°32'1615.7
2015-Feb-22 13:33N 55°02' E 013°58'1515.2
2015-Feb-22 12:33N 55°12' E 014°17'1615.6
2015-Feb-22 11:33N 55°24' E 014°34'1615.5
2015-Feb-22 10:33N 55°33' E 014°57'1615.4
2015-Feb-22 09:29N 55°41' E 015°22'34114.8
2015-Feb-21 10:30N 59°36' E 023°04'1515.8
2015-Feb-21 09:33N 59°40' E 023°32'1615.8
2015-Feb-21 08:32N 59°45' E 024°03'1515.9
2015-Feb-21 07:33N 59°49' E 024°33'4915.7
2015-Feb-21 04:25N 60°02' E 026°08'1315.6
2015-Feb-21 03:33N 60°12' E 026°23'1413.5
2015-Feb-21 02:33N 60°22' E 026°42'1010.0
2015-Feb-21 01:33N 60°29' E 026°57'0 0.0
2015-Feb-21 00:34N 60°29' E 026°57'0 0.0
2015-Feb-20 23:34N 60°29' E 026°57'0 0.0
2015-Feb-20 22:31N 60°29' E 026°57'0 0.0
2015-Feb-20 21:34N 60°29' E 026°57'0 0.0
2015-Feb-20 20:34N 60°29' E 026°57'0 0.0
2015-Feb-20 19:34N 60°29' E 026°57'0 0.0
2015-Feb-20 18:34N 60°29' E 026°57'0 0.0
2015-Feb-20 17:31N 60°29' E 026°57'0 0.0
2015-Feb-20 16:31N 60°29' E 026°57'0 0.0
2015-Feb-20 15:31N 60°29' E 026°57'0 0.0
2015-Feb-20 14:31N 60°29' E 026°57'0 0.0
2015-Feb-20 13:31N 60°29' E 026°57'0 0.0
2015-Feb-20 12:31N 60°29' E 026°57'0 0.0
2015-Feb-20 11:34N 60°29' E 026°57'0 0.0
2015-Feb-20 10:31N 60°29' E 026°57'0 0.0
2015-Feb-20 09:34N 60°29' E 026°57'0 0.0
2015-Feb-20 08:34N 60°29' E 026°57'0 0.0
2015-Feb-20 07:31N 60°29' E 026°57'0 0.0
2015-Feb-20 06:34N 60°29' E 026°57'0 0.0
2015-Feb-20 05:31N 60°29' E 026°57'0 0.0
2015-Feb-20 04:34N 60°29' E 026°57'0 0.2
2015-Feb-20 03:33N 60°29' E 026°57'10 9.9
2015-Feb-20 02:33N 60°20' E 027°06'1211.7
2015-Feb-20 01:32N 60°13' E 027°25'8410.5
2015-Feb-19 17:33N 59°54' E 030°09'2 1.8
2015-Feb-19 16:25N 59°54' E 030°13'0 0.0
2015-Feb-19 15:31N 59°54' E 030°13'0 0.0
2015-Feb-19 14:31N 59°54' E 030°13'0 0.0
2015-Feb-19 13:22N 59°54' E 030°13'0 0.0
2015-Feb-19 12:31N 59°54' E 030°13'0 0.0
2015-Feb-19 11:31N 59°54' E 030°13'0 0.0
2015-Feb-19 09:25N 59°54' E 030°13'0 0.0
2015-Feb-19 08:25N 59°54' E 030°13'0 0.0
2015-Feb-19 05:07N 59°54' E 030°13'0 0.5
2015-Feb-19 04:31N 59°53' E 030°13'96 4.8
2015-Feb-18 08:34N 59°58' E 027°01'  

Dump ship's entire track history